Time;durP1;ratioP1;P1;durP2;ratioP2;P2;SDS_P1;SDS_P2;PMS_P1;PMS_P2;Temp;Humidity;BMP_temperature;BMP_pressure;BME280_temperature;BME280_humidity;BME280_pressure;Samples;Min_cycle;Max_cycle;Signal;HPM_P1;HPM_P2
2023/07/20 00:00:13;;;;;;;5.10;3.50;;;;;;;20.36;100.00;97212.63;1224857;75;2922417;-66
2023/07/20 00:02:46;;;;;;;4.15;3.30;;;;;;;20.50;100.00;97202.81;1224590;75;2918989;-68
2023/07/20 00:05:21;;;;;;;3.00;2.70;;;;;;;20.52;100.00;97203.00;1222967;75;2919335;-66
2023/07/20 00:07:53;;;;;;;3.00;2.70;;;;;;;20.39;100.00;97206.69;1225075;75;2922274;-67
2023/07/20 00:10:26;;;;;;;5.70;3.95;;;;;;;20.28;100.00;97200.75;1225663;75;2866368;-69
2023/07/20 00:13:01;;;;;;;4.80;3.90;;;;;;;20.39;100.00;97214.28;1225072;75;2928871;-67
2023/07/20 00:15:34;;;;;;;3.85;3.35;;;;;;;20.62;100.00;97215.06;1224297;75;2924387;-66
2023/07/20 00:18:07;;;;;;;4.25;3.15;;;;;;;20.39;100.00;97217.06;1225240;75;2913683;-69
2023/07/20 00:20:39;;;;;;;4.55;3.85;;;;;;;20.37;100.00;97209.28;1224222;75;2941694;-68
2023/07/20 00:23:12;;;;;;;4.65;3.85;;;;;;;20.19;100.00;97211.09;1224530;75;2926932;-67
2023/07/20 00:25:44;;;;;;;5.40;3.90;;;;;;;20.09;100.00;97209.41;1224332;75;2924623;-68
2023/07/20 00:28:20;;;;;;;5.85;3.85;;;;;;;20.26;100.00;97208.91;1223996;75;2928453;-69
2023/07/20 00:30:52;;;;;;;3.80;3.20;;;;;;;20.34;100.00;97207.59;1224036;75;2931950;-67
2023/07/20 00:33:25;;;;;;;6.05;3.20;;;;;;;20.24;100.00;97205.94;1223549;83;2919971;-68
2023/07/20 00:35:57;;;;;;;3.70;3.25;;;;;;;20.27;100.00;97205.53;1223532;75;2924734;-67
2023/07/20 00:38:30;;;;;;;4.65;3.75;;;;;;;20.07;100.00;97200.88;1223617;75;2918938;-68
2023/07/20 00:41:02;;;;;;;5.80;4.35;;;;;;;20.32;100.00;97193.50;1224304;75;2924760;-66
2023/07/20 00:43:38;;;;;;;6.00;3.00;;;;;;;20.51;100.00;97186.84;1224532;75;2924585;-68
2023/07/20 00:46:11;;;;;;;4.25;2.70;;;;;;;20.43;100.00;97195.94;1223729;75;2922341;-67
2023/07/20 00:48:44;;;;;;;3.15;2.70;;;;;;;20.36;100.00;97198.72;1224284;75;2920702;-68
2023/07/20 00:51:17;;;;;;;2.80;2.50;;;;;;;20.52;100.00;97196.69;1223938;75;2925022;-68
2023/07/20 00:53:50;;;;;;;3.10;2.55;;;;;;;20.14;100.00;97209.22;1224120;75;2928723;-68
2023/07/20 00:56:23;;;;;;;4.50;3.35;;;;;;;19.89;100.00;97211.75;1224712;75;2919695;-68
2023/07/20 00:58:58;;;;;;;4.35;3.40;;;;;;;20.13;100.00;97204.97;1224751;75;2925055;-68
2023/07/20 01:01:31;;;;;;;4.55;3.15;;;;;;;20.06;100.00;97204.94;1223713;75;2930608;-68
2023/07/20 01:04:04;;;;;;;3.25;2.75;;;;;;;20.02;100.00;97205.31;1224494;75;2930812;-67
2023/07/20 01:06:47;;;;;;;6.70;3.85;;;;;;;19.73;100.00;97201.88;1224422;75;2922325;-68
2023/07/20 01:09:31;;;;;;;5.55;3.70;;;;;;;20.19;100.00;97210.34;1223879;75;2918579;-67
2023/07/20 01:12:11;;;;;;;3.95;2.70;;;;;;;20.30;100.00;97201.69;1224448;75;2929690;-65
2023/07/20 01:14:46;;;;;;;4.10;2.85;;;;;;;19.95;100.00;97190.09;1223988;75;2933128;-64
2023/07/20 01:17:19;;;;;;;5.35;3.30;;;;;;;20.02;100.00;97190.69;1224059;75;2933760;-66
2023/07/20 01:19:51;;;;;;;3.60;3.10;;;;;;;20.06;100.00;97191.03;1224157;75;2922531;-68
2023/07/20 01:22:49;;;;;;;3.95;2.65;;;;;;;20.15;100.00;97185.69;1223874;75;2928775;-65
2023/07/20 01:25:47;;;;;;;4.35;3.20;;;;;;;20.11;100.00;97185.34;1224140;75;2917690;-68
2023/07/20 01:28:57;;;;;;;3.40;2.90;;;;;;;20.14;100.00;97183.47;1224399;75;2925800;-67
2023/07/20 01:31:35;;;;;;;3.15;2.40;;;;;;;20.22;100.00;97193.31;1224384;75;2922094;-69
2023/07/20 01:34:09;;;;;;;2.50;2.20;;;;;;;20.27;100.00;97177.75;1224619;75;2924973;-68
2023/07/20 01:36:42;;;;;;;1.80;1.70;;;;;;;20.26;100.00;97195.72;1224951;75;2920799;-68
2023/07/20 01:39:15;;;;;;;3.20;2.25;;;;;;;20.08;100.00;97191.97;1224903;75;2921749;-69
2023/07/20 01:41:48;;;;;;;2.25;1.90;;;;;;;20.23;100.00;97199.63;1223857;75;2935999;-69
2023/07/20 01:44:21;;;;;;;2.95;2.05;;;;;;;19.92;100.00;97198.81;1223474;75;2931555;-67
2023/07/20 01:46:56;;;;;;;2.65;1.95;;;;;;;20.11;100.00;97215.16;1224069;75;2928951;-68
2023/07/20 01:49:29;;;;;;;2.30;1.80;;;;;;;20.18;100.00;97208.88;1223484;75;2928545;-67
2023/07/20 01:52:01;;;;;;;2.10;1.60;;;;;;;20.22;100.00;97204.41;1223935;75;2924107;-66
2023/07/20 01:54:34;;;;;;;1.80;1.60;;;;;;;20.15;100.00;97207.19;1224036;75;2931926;-66
2023/07/20 01:57:08;;;;;;;2.80;2.45;;;;;;;20.06;100.00;97216.06;1224435;75;2927499;-67
2023/07/20 01:59:40;;;;;;;2.00;1.70;;;;;;;20.15;100.00;97216.25;1223818;75;2936025;-67
2023/07/20 02:02:16;;;;;;;2.00;1.65;;;;;;;20.06;100.00;97216.81;1223859;75;2923170;-66
2023/07/20 02:04:48;;;;;;;2.05;1.60;;;;;;;20.10;100.00;97222.75;1224033;75;2923883;-69
2023/07/20 02:07:21;;;;;;;3.45;1.80;;;;;;;20.20;100.00;97225.72;1223854;75;2928773;-67
2023/07/20 02:09:54;;;;;;;4.35;2.30;;;;;;;20.09;100.00;97232.38;1224464;75;2925351;-68
2023/07/20 02:12:26;;;;;;;1.90;1.55;;;;;;;20.20;100.00;97236.84;1223870;75;2918826;-66
2023/07/20 02:14:59;;;;;;;2.35;1.75;;;;;;;20.13;100.00;97224.44;1223724;75;2929226;-67
2023/07/20 02:17:34;;;;;;;2.25;1.90;;;;;;;20.12;100.00;97234.06;1223433;75;2940817;-67
2023/07/20 02:20:09;;;;;;;1.95;1.60;;;;;;;20.00;100.00;97236.41;1224191;75;2925291;-65
2023/07/20 02:22:43;;;;;;;3.25;2.00;;;;;;;19.69;100.00;97237.59;1224482;75;2931794;-65
2023/07/20 02:25:16;;;;;;;3.25;2.75;;;;;;;19.62;100.00;97233.44;1224641;75;2920965;-68
2023/07/20 02:27:48;;;;;;;4.85;3.55;;;;;;;19.49;100.00;97239.13;1223576;75;2928376;-65
2023/07/20 02:30:21;;;;;;;2.90;2.25;;;;;;;19.77;100.00;97243.91;1223887;75;2921316;-66
2023/07/20 02:32:58;;;;;;;2.40;2.10;;;;;;;19.77;100.00;97255.03;1224459;75;2926551;-67
2023/07/20 02:35:31;;;;;;;2.30;1.80;;;;;;;19.85;100.00;97246.75;1224470;75;2921347;-69
2023/07/20 02:38:04;;;;;;;2.70;2.30;;;;;;;19.80;100.00;97251.16;1224035;75;2918831;-67
2023/07/20 02:40:36;;;;;;;2.20;2.00;;;;;;;19.69;100.00;97254.25;1224318;75;2923274;-65
2023/07/20 02:43:09;;;;;;;2.40;1.85;;;;;;;19.79;100.00;97255.22;1223767;75;2925876;-65
2023/07/20 02:45:45;;;;;;;2.90;1.90;;;;;;;19.69;100.00;97259.81;1224494;75;2923884;-68
2023/07/20 02:48:20;;;;;;;2.30;1.75;;;;;;;19.71;100.00;97254.44;1224277;75;2925904;-68
2023/07/20 02:50:53;;;;;;;2.45;1.80;;;;;;;19.75;100.00;97263.94;1224685;75;2917982;-66
2023/07/20 02:53:25;;;;;;;2.20;1.50;;;;;;;19.73;100.00;97269.28;1224108;75;2925963;-67
2023/07/20 02:55:58;;;;;;;3.00;2.15;;;;;;;19.59;100.00;97281.75;1224199;75;2919205;-67
2023/07/20 02:58:30;;;;;;;3.40;2.45;;;;;;;19.65;100.00;97274.03;1224151;75;2932486;-67
2023/07/20 03:01:03;;;;;;;1.95;1.60;;;;;;;19.61;100.00;97270.84;1224098;75;2930047;-69
2023/07/20 03:03:39;;;;;;;2.00;1.60;;;;;;;19.68;100.00;97269.44;1223768;75;2926726;-68
2023/07/20 03:06:11;;;;;;;2.10;1.80;;;;;;;19.58;100.00;97269.19;1223905;75;2931999;-67
2023/07/20 03:08:47;;;;;;;2.45;1.80;;;;;;;19.66;100.00;97264.41;1222150;75;2927784;-66
2023/07/20 03:11:20;;;;;;;1.85;1.70;;;;;;;19.67;100.00;97265.88;1224220;75;2909855;-66
2023/07/20 03:13:52;;;;;;;2.30;1.75;;;;;;;19.71;100.00;97254.44;1223989;75;2938258;-68
2023/07/20 03:16:27;;;;;;;2.40;1.60;;;;;;;19.63;100.00;97262.72;1223608;75;2927346;-67
2023/07/20 03:19:02;;;;;;;1.75;1.50;;;;;;;19.66;100.00;97258.84;1223517;75;2924017;-67
2023/07/20 03:21:40;;;;;;;2.10;1.55;;;;;;;19.64;100.00;97257.91;1223345;75;2930269;-66
2023/07/20 03:24:13;;;;;;;1.70;1.60;;;;;;;19.75;100.00;97260.41;1223712;75;2923117;-68
2023/07/20 03:26:46;;;;;;;1.95;1.55;;;;;;;19.63;100.00;97253.66;1223821;75;2923076;-69
2023/07/20 03:29:18;;;;;;;1.60;1.30;;;;;;;19.67;100.00;97259.59;1223756;75;2930641;-66
2023/07/20 03:31:51;;;;;;;1.60;1.50;;;;;;;19.67;100.00;97267.91;1223349;75;2926073;-67
2023/07/20 03:34:26;;;;;;;2.60;1.30;;;;;;;19.58;100.00;97269.19;1223111;75;2923357;-65
2023/07/20 03:36:59;;;;;;;3.05;2.20;;;;;;;19.50;100.00;97265.59;1224023;75;2923245;-66
2023/07/20 03:39:31;;;;;;;2.90;2.60;;;;;;;19.38;100.00;97267.94;1224387;75;2928862;-66
2023/07/20 03:42:04;;;;;;;2.40;2.20;;;;;;;19.35;100.00;97275.31;1223358;75;2923046;-66
2023/07/20 03:44:37;;;;;;;2.70;2.45;;;;;;;19.45;100.00;97272.78;1223428;75;2931527;-66
2023/07/20 03:47:10;;;;;;;4.65;2.90;;;;;;;19.09;100.00;97265.13;1222505;75;2929158;-66
2023/07/20 03:49:45;;;;;;;4.50;2.95;;;;;;;19.37;100.00;97272.00;1223536;75;2925310;-65
2023/07/20 03:52:18;;;;;;;2.80;2.35;;;;;;;19.45;100.00;97283.91;1223764;75;2928291;-67
2023/07/20 03:54:51;;;;;;;2.30;2.10;;;;;;;19.62;100.00;97289.00;1223774;75;2930372;-68
2023/07/20 03:57:23;;;;;;;3.00;2.30;;;;;;;19.43;100.00;97280.91;1223972;75;2925821;-68
2023/07/20 03:59:56;;;;;;;3.25;2.80;;;;;;;19.33;100.00;97279.94;1223821;75;2925982;-66
2023/07/20 04:02:28;;;;;;;2.75;2.45;;;;;;;19.27;100.00;97279.34;1223271;75;2923896;-67
2023/07/20 04:05:04;;;;;;;2.25;2.05;;;;;;;19.54;100.00;97280.63;1223237;75;2931259;-68
2023/07/20 04:07:36;;;;;;;2.70;2.15;;;;;;;19.53;100.00;97276.38;1223423;75;2930912;-69
2023/07/20 04:10:10;;;;;;;3.55;1.90;;;;;;;19.68;100.00;97284.06;1223493;75;2932703;-66
2023/07/20 04:12:43;;;;;;;2.70;2.20;;;;;;;19.74;100.00;97279.09;1223532;75;2923451;-66
2023/07/20 04:15:16;;;;;;;4.65;2.75;;;;;;;19.59;100.00;97276.94;1223939;75;2925438;-69
2023/07/20 04:17:49;;;;;;;2.80;2.50;;;;;;;19.72;100.00;97276.13;1223485;75;2929874;-68
2023/07/20 04:20:24;;;;;;;3.40;2.85;;;;;;;19.31;100.00;97280.50;1224399;75;2927154;-66
2023/07/20 04:22:57;;;;;;;4.70;3.60;;;;;;;19.28;100.00;97280.81;1223661;83;2933837;-68
2023/07/20 04:25:30;;;;;;;3.00;2.70;;;;;;;19.43;100.00;97285.72;1223064;75;2929552;-67
2023/07/20 04:28:03;;;;;;;3.35;3.00;;;;;;;19.42;100.00;97281.47;1224056;75;2933970;-69
2023/07/20 04:30:35;;;;;;;4.30;3.20;;;;;;;19.40;100.00;97282.00;1223866;75;2925003;-67
2023/07/20 04:33:08;;;;;;;3.95;3.00;;;;;;;19.57;100.00;97295.44;1222495;75;2922170;-68
2023/07/20 04:35:54;;;;;;;3.45;3.00;;;;;;;19.74;100.00;97295.75;1223683;75;2938915;-69
2023/07/20 04:38:26;;;;;;;3.85;2.45;;;;;;;19.81;100.00;97280.41;1223802;75;2938225;-66
2023/07/20 04:40:59;;;;;;;3.05;2.55;;;;;;;20.04;100.00;97293.69;1223549;75;2930959;-69
2023/07/20 04:43:33;;;;;;;3.00;2.45;;;;;;;19.99;100.00;97293.28;1224657;75;2927420;-68
2023/07/20 04:46:06;;;;;;;4.80;3.10;;;;;;;19.94;100.00;97294.19;1223500;75;2927087;-66
2023/07/20 04:48:40;;;;;;;5.70;3.00;;;;;;;19.87;100.00;97292.13;1224205;75;2927864;-67
2023/07/20 04:51:17;;;;;;;4.45;3.25;;;;;;;20.05;100.00;97297.94;1223926;75;2924588;-66
2023/07/20 04:53:49;;;;;;;4.65;2.90;;;;;;;20.30;100.00;97289.88;1224251;75;2928781;-68
2023/07/20 04:56:23;;;;;;;3.55;2.80;;;;;;;20.09;100.00;97290.75;1224271;75;2929962;-68
2023/07/20 04:58:55;;;;;;;3.60;2.60;;;;;;;20.34;100.00;97299.34;1222878;75;2928083;-69
2023/07/20 05:01:29;;;;;;;3.60;2.05;;;;;;;20.46;100.00;97296.97;1223951;75;2925314;-65
2023/07/20 05:04:01;;;;;;;2.75;2.15;;;;;;;20.41;100.00;97298.63;1223787;75;2924181;-67
2023/07/20 05:06:38;;;;;;;2.60;2.20;;;;;;;20.33;100.00;97311.75;1223166;75;2930761;-67
2023/07/20 05:09:11;;;;;;;3.25;2.55;;;;;;;20.37;100.00;97303.81;1223682;75;2924384;-67
2023/07/20 05:11:45;;;;;;;3.20;2.60;;;;;;;20.46;100.00;97296.97;1223720;75;2930648;-67
2023/07/20 05:14:18;;;;;;;3.10;2.55;;;;;;;20.40;100.00;97304.75;1223506;75;2926106;-66
2023/07/20 05:16:50;;;;;;;3.15;2.50;;;;;;;20.52;100.00;97297.53;1223762;75;2928095;-67
2023/07/20 05:19:23;;;;;;;4.75;3.25;;;;;;;20.29;100.00;97311.38;1223868;75;2934326;-67
2023/07/20 05:21:58;;;;;;;6.10;4.20;;;;;;;20.16;100.00;97308.75;1224066;75;2927314;-67
2023/07/20 05:24:31;;;;;;;6.25;4.30;;;;;;;19.79;100.00;97316.31;1223980;75;2924121;-68
2023/07/20 05:27:03;;;;;;;7.55;4.10;;;;;;;19.78;100.00;97317.63;1223801;75;2919518;-67
2023/07/20 05:29:36;;;;;;;8.55;4.60;;;;;;;19.96;100.00;97316.63;1224494;75;2924459;-67
2023/07/20 05:32:10;;;;;;;7.75;4.35;;;;;;;20.08;100.00;97311.47;1223857;75;2932870;-65
2023/07/20 05:34:43;;;;;;;3.85;3.45;;;;;;;20.42;100.00;97310.50;1224152;75;2927759;-66
2023/07/20 05:37:18;;;;;;;4.50;3.65;;;;;;;20.87;100.00;97316.72;1223936;75;2928228;-68
2023/07/20 05:39:51;;;;;;;5.35;3.60;;;;;;;20.98;100.00;97322.69;1224392;75;2928233;-65
2023/07/20 05:42:23;;;;;;;5.60;3.25;;;;;;;20.97;100.00;97323.22;1224065;75;2922996;-68
2023/07/20 05:44:56;;;;;;;4.45;3.20;;;;;;;21.28;100.00;97327.50;1223934;75;2923189;-69
2023/07/20 05:47:29;;;;;;;3.60;2.90;;;;;;;21.16;100.00;97334.75;1223521;75;2925166;-68
2023/07/20 05:50:01;;;;;;;5.50;3.70;;;;;;;20.55;100.00;97327.06;1224374;75;2925295;-64
2023/07/20 05:52:38;;;;;;;5.15;3.30;;;;;;;20.94;100.00;97327.88;1224465;75;2924227;-65
2023/07/20 05:55:12;;;;;;;3.20;2.60;;;;;;;21.17;100.00;97332.72;1224151;75;2926536;-69
2023/07/20 05:57:44;;;;;;;4.55;3.20;;;;;;;21.06;100.00;97328.97;1223902;75;2934596;-68
2023/07/20 06:00:19;;;;;;;6.30;3.60;;;;;;;21.09;100.00;97329.91;1224256;75;2930858;-67
2023/07/20 06:02:52;;;;;;;5.75;3.50;;;;;;;21.27;100.00;97330.84;1224556;75;2938561;-66
2023/07/20 06:05:26;;;;;;;3.90;3.40;;;;;;;21.39;100.00;97329.19;1223087;75;2925119;-69
2023/07/20 06:08:01;;;;;;;6.00;4.30;;;;;;;21.48;100.00;97325.13;1223185;75;2924092;-67
2023/07/20 06:10:34;;;;;;;5.15;3.50;;;;;;;21.39;100.00;97320.09;1223752;75;2899589;-67
2023/07/20 06:13:07;;;;;;;6.55;3.95;;;;;;;21.43;100.00;97323.25;1223316;75;2928883;-68
2023/07/20 06:15:42;;;;;;;4.90;3.70;;;;;;;21.53;100.00;97335.31;1223911;75;2925165;-67
2023/07/20 06:18:15;;;;;;;8.00;4.10;;;;;;;21.50;100.00;97330.84;1222890;75;2919567;-67
2023/07/20 06:20:53;;;;;;;4.00;3.60;;;;;;;21.73;100.00;97346.81;1222959;75;2932013;-66
2023/07/20 06:23:28;;;;;;;;;;;;;;;21.52;100.00;97342.19;1224836;75;2907892;-66
2023/07/20 06:26:00;;;;;;;6.05;4.05;;;;;;;21.67;100.00;97336.59;1223588;75;2927145;-67
2023/07/20 06:28:33;;;;;;;5.45;4.00;;;;;;;21.73;100.00;97336.41;1224036;75;2920014;-67
2023/07/20 06:31:06;;;;;;;4.50;3.75;;;;;;;21.97;99.74;97346.19;1224177;75;2920449;-66
2023/07/20 06:33:39;;;;;;;5.05;4.00;;;;;;;21.93;97.76;97345.81;1223438;75;2931704;-68
2023/07/20 06:36:11;;;;;;;7.05;4.20;;;;;;;22.06;100.00;97340.03;1224980;75;2922685;-66
2023/07/20 06:38:47;;;;;;;4.30;3.40;;;;;;;22.21;99.70;97350.41;1224196;75;2931412;-68
2023/07/20 06:41:19;;;;;;;6.25;4.05;;;;;;;21.93;100.00;97356.97;1223242;75;2926824;-65
2023/07/20 06:43:57;;;;;;;5.25;3.75;;;;;;;22.29;100.00;97350.38;1225247;75;2938364;-68
2023/07/20 06:46:30;;;;;;;4.70;3.30;;;;;;;22.31;100.00;97351.31;1223937;75;2928446;-65
2023/07/20 06:49:02;;;;;;;4.55;3.10;;;;;;;22.65;99.20;97352.81;1224637;75;2927823;-67
2023/07/20 06:51:35;;;;;;;3.25;2.70;;;;;;;22.82;100.00;97349.38;1223674;75;2923283;-70
2023/07/20 06:54:10;;;;;;;4.60;3.15;;;;;;;22.95;90.02;97346.31;1223544;75;2925455;-67
2023/07/20 06:56:43;;;;;;;6.80;3.85;;;;;;;22.88;97.26;97344.31;1223741;75;2923636;-67
2023/07/20 06:59:16;;;;;;;4.65;3.40;;;;;;;23.11;94.88;97340.66;1224055;75;2921483;-65
2023/07/20 07:01:48;;;;;;;7.60;3.10;;;;;;;23.35;83.97;97350.34;1224154;75;2922352;-66
2023/07/20 07:04:21;;;;;;;4.15;2.90;;;;;;;23.84;83.78;97348.81;1223878;75;2924100;-70
2023/07/20 07:06:53;;;;;;;6.40;3.20;;;;;;;23.92;84.76;97341.06;1224046;75;2924144;-66
2023/07/20 07:09:28;;;;;;;4.85;2.65;;;;;;;24.14;75.97;97353.31;1224214;75;2926367;-67
2023/07/20 07:12:01;;;;;;;3.60;2.05;;;;;;;24.31;68.38;97357.41;1224149;75;2944533;-67
2023/07/20 07:14:34;;;;;;;4.35;3.00;;;;;;;24.17;63.91;97368.97;1222356;75;2926449;-67
2023/07/20 07:17:08;;;;;;;3.65;2.75;;;;;;;24.45;66.13;97362.09;1224455;75;2923792;-66
2023/07/20 07:19:41;;;;;;;4.10;2.60;;;;;;;24.59;65.91;97365.31;1225108;75;2919222;-68
2023/07/20 07:22:14;;;;;;;3.75;2.30;;;;;;;24.60;63.14;97360.44;1223954;75;2930832;-68
2023/07/20 07:24:50;;;;;;;2.70;2.05;;;;;;;25.05;62.75;97355.53;1223361;75;2928649;-68
2023/07/20 07:27:22;;;;;;;4.30;2.40;;;;;;;25.05;61.84;97367.47;1224165;75;2918722;-66
2023/07/20 07:29:55;;;;;;;3.80;2.30;;;;;;;24.99;62.65;97364.19;1223607;75;2926123;-67
2023/07/20 07:32:28;;;;;;;5.50;3.20;;;;;;;24.73;65.95;97362.16;1222693;75;2940531;-66
2023/07/20 07:35:01;;;;;;;6.80;3.10;;;;;;;24.83;66.84;97360.88;1224522;75;2923850;-67
2023/07/20 07:37:33;;;;;;;4.05;2.70;;;;;;;25.17;67.34;97355.72;1224224;75;2922338;-69
2023/07/20 07:40:11;;;;;;;3.75;2.40;;;;;;;25.02;64.28;97349.03;1224331;75;2928912;-67
2023/07/20 07:42:44;;;;;;;3.80;2.80;;;;;;;25.22;65.86;97347.06;1224983;75;2920317;-66
2023/07/20 07:45:16;;;;;;;3.15;2.15;;;;;;;25.48;67.69;97345.50;1224461;75;2917807;-68
2023/07/20 07:47:49;;;;;;;2.30;1.75;;;;;;;25.65;67.35;97347.47;1224720;75;2923688;-69
2023/07/20 07:50:22;;;;;;;1.95;1.55;;;;;;;25.67;68.49;97356.03;1225395;75;2917648;-70
2023/07/20 07:52:54;;;;;;;2.35;1.65;;;;;;;25.53;67.77;97349.38;1224495;75;2915662;-67
2023/07/20 07:55:30;;;;;;;2.25;1.80;;;;;;;25.63;69.28;97349.38;1225795;75;2922420;-68
2023/07/20 07:58:02;;;;;;;2.65;1.90;;;;;;;25.95;67.55;97341.91;1225988;75;2913505;-67
2023/07/20 08:00:35;;;;;;;2.35;1.80;;;;;;;25.69;66.36;97344.25;1223669;75;2924318;-67
2023/07/20 08:03:09;;;;;;;4.70;3.05;;;;;;;25.17;66.97;97347.31;1224882;75;2923825;-68
2023/07/20 08:05:42;;;;;;;4.40;2.15;;;;;;;25.72;68.10;97338.19;1225603;75;2921945;-67
2023/07/20 08:08:14;;;;;;;3.85;2.50;;;;;;;25.25;70.01;97340.28;1224454;75;2916988;-65
2023/07/20 08:10:50;;;;;;;5.40;3.00;;;;;;;25.16;68.03;97348.63;1224297;75;2924620;-67
2023/07/20 08:13:22;;;;;;;5.00;2.90;;;;;;;24.75;66.57;97357.44;1224960;75;2920469;-68
2023/07/20 08:15:56;;;;;;;4.70;2.90;;;;;;;25.22;67.52;97354.72;1222363;75;3037307;-66
2023/07/20 08:18:28;;;;;;;5.15;3.10;;;;;;;25.26;65.76;97357.84;1224333;75;2926042;-68
2023/07/20 08:21:01;;;;;;;5.40;3.00;;;;;;;25.24;68.39;97352.09;1224180;75;2922665;-68
2023/07/20 08:23:34;;;;;;;3.45;2.95;;;;;;;25.21;74.43;97356.78;1224401;75;2920441;-66
2023/07/20 08:26:09;;;;;;;7.90;3.60;;;;;;;25.02;79.31;97363.03;1224546;75;2918930;-68
2023/07/20 08:28:42;;;;;;;4.90;3.45;;;;;;;25.18;72.56;97357.22;1223370;75;2941373;-68
2023/07/20 08:31:15;;;;;;;7.20;3.15;;;;;;;25.32;73.63;97349.88;1224700;75;2925976;-67
2023/07/20 08:33:47;;;;;;;5.25;3.10;;;;;;;25.58;77.20;97353.22;1224547;75;2925642;-69
2023/07/20 08:36:20;;;;;;;5.45;3.85;;;;;;;25.68;79.83;97351.16;1223638;75;2920425;-68
2023/07/20 08:38:52;;;;;;;5.60;3.90;;;;;;;25.89;75.25;97345.75;1224785;75;2931415;-67
2023/07/20 08:41:30;;;;;;;4.30;2.85;;;;;;;26.13;68.46;97352.41;1223976;75;2920039;-68
2023/07/20 08:44:03;;;;;;;7.25;3.40;;;;;;;26.01;65.11;97345.91;1224622;75;2921403;-68
2023/07/20 08:46:36;;;;;;;6.30;3.00;;;;;;;26.25;67.28;97352.56;1224355;75;2920594;-67
2023/07/20 08:49:10;;;;;;;3.85;2.85;;;;;;;26.14;68.30;97355.94;1224229;75;2921056;-66
2023/07/20 08:51:43;;;;;;;4.45;3.10;;;;;;;26.55;66.33;97353.28;1224766;75;2933088;-69
2023/07/20 08:54:17;;;;;;;4.10;3.05;;;;;;;26.37;64.58;97355.50;1224361;75;2921687;-65
2023/07/20 08:56:53;;;;;;;4.55;3.35;;;;;;;26.34;64.31;97351.81;1223038;75;2931051;-68
2023/07/20 08:59:28;;;;;;;5.00;3.30;;;;;;;26.30;63.45;97347.97;1224889;75;2920691;-67
2023/07/20 09:02:02;;;;;;;3.05;2.70;;;;;;;26.45;64.34;97355.34;1224350;75;2922852;-69
2023/07/20 09:04:35;;;;;;;4.85;3.30;;;;;;;26.58;64.64;97354.16;1224041;75;2922531;-66
2023/07/20 09:07:08;;;;;;;5.45;2.65;;;;;;;26.92;62.73;97347.44;1224141;75;2927939;-67
2023/07/20 09:09:44;;;;;;;4.25;2.70;;;;;;;27.02;60.95;97348.13;1224223;75;2918450;-68
2023/07/20 09:12:20;;;;;;;3.50;2.60;;;;;;;27.37;63.11;97339.25;1224359;75;2926612;-69
2023/07/20 09:14:53;;;;;;;4.50;3.10;;;;;;;26.78;60.37;97345.09;1224807;75;2932189;-69
2023/07/20 09:17:30;;;;;;;3.35;2.80;;;;;;;26.86;59.62;97342.09;1224348;75;2924375;-69
2023/07/20 09:20:09;;;;;;;4.70;3.35;;;;;;;26.59;62.83;97338.81;1224492;75;2924995;-68
2023/07/20 09:22:43;;;;;;;4.35;3.10;;;;;;;26.54;60.10;97329.34;1224645;75;2923905;-68
2023/07/20 09:25:17;;;;;;;4.40;3.40;;;;;;;26.86;58.25;97332.94;1224192;75;2918771;-66
2023/07/20 09:27:54;;;;;;;4.05;3.15;;;;;;;26.95;57.65;97335.72;1224019;75;2918451;-67
2023/07/20 09:30:29;;;;;;;5.30;2.80;;;;;;;27.11;59.06;97335.38;1224719;75;2921471;-68
2023/07/20 09:33:03;;;;;;;5.75;3.05;;;;;;;27.34;56.46;97337.66;1224700;75;2917173;-68
2023/07/20 09:35:35;;;;;;;3.50;2.70;;;;;;;27.46;54.34;97341.28;1224293;75;2922196;-66
2023/07/20 09:38:08;;;;;;;3.75;2.75;;;;;;;27.72;53.86;97341.59;1223983;75;2912254;-66
2023/07/20 09:40:42;;;;;;;4.40;2.85;;;;;;;27.67;52.32;97340.56;1224041;75;2925295;-68
2023/07/20 09:43:20;;;;;;;7.30;3.15;;;;;;;27.81;54.27;97333.06;1225191;75;2922218;-68
2023/07/20 09:45:53;;;;;;;4.90;2.50;;;;;;;28.01;56.80;97330.13;1225544;75;2924717;-67
2023/07/20 09:48:29;;;;;;;7.25;3.15;;;;;;;27.91;58.32;97332.28;1224472;75;2920522;-65
2023/07/20 09:51:01;;;;;;;4.10;2.95;;;;;;;27.80;57.00;97325.97;1225214;75;2917995;-70
2023/07/20 09:53:36;;;;;;;4.50;2.75;;;;;;;27.43;57.87;97336.88;1224864;75;2917707;-67
2023/07/20 09:56:12;;;;;;;4.45;3.05;;;;;;;27.78;55.71;97341.97;1224368;75;2922219;-69
2023/07/20 09:58:48;;;;;;;4.00;2.70;;;;;;;27.87;57.42;97338.38;1224664;75;2918584;-67
2023/07/20 10:01:24;;;;;;;4.15;3.10;;;;;;;27.60;60.95;97344.31;1223369;75;2916741;-70
2023/07/20 10:04:01;;;;;;;3.95;2.90;;;;;;;27.93;59.87;97340.88;1224815;75;2916956;-68
2023/07/20 10:06:36;;;;;;;6.35;3.35;;;;;;;27.76;61.47;97339.78;1223663;75;2921445;-66
2023/07/20 10:09:09;;;;;;;7.60;2.85;;;;;;;28.01;61.62;97342.13;1224364;75;2928909;-69
2023/07/20 10:11:46;;;;;;;4.05;2.95;;;;;;;27.77;61.81;97335.59;1223658;75;2932111;-69
2023/07/20 10:14:24;;;;;;;4.20;3.50;;;;;;;27.52;60.87;97332.53;1224096;75;2930905;-68
2023/07/20 10:17:01;;;;;;;;;;;;;;;28.09;61.00;97327.84;1224555;75;2923249;-68
2023/07/20 10:19:46;;;;;;;4.95;2.65;;;;;;;28.23;57.43;97328.03;1224096;75;2931050;-68
2023/07/20 10:22:22;;;;;;;5.75;2.85;;;;;;;28.17;55.82;97330.47;1224581;75;2914775;-69
2023/07/20 10:24:58;;;;;;;4.70;3.10;;;;;;;28.40;57.32;97329.78;1223881;75;2921777;-69
2023/07/20 10:27:31;;;;;;;4.30;2.90;;;;;;;28.04;57.05;97332.50;1224669;75;2921459;-69
2023/07/20 10:30:08;;;;;;;4.45;2.95;;;;;;;27.78;56.36;97330.72;1224365;75;2919838;-68
2023/07/20 10:32:43;;;;;;;4.30;2.70;;;;;;;28.34;54.69;97318.88;1225843;75;2917686;-68
2023/07/20 10:35:17;;;;;;;3.95;2.60;;;;;;;28.60;52.56;97321.91;1224625;75;2914947;-67
2023/07/20 10:37:56;;;;;;;4.95;2.60;;;;;;;28.53;53.05;97320.06;1224245;75;2934920;-68
2023/07/20 10:40:34;;;;;;;4.05;2.60;;;;;;;28.74;53.12;97314.34;1224039;75;2920237;-66
2023/07/20 10:43:08;;;;;;;;;;;;;;;28.44;50.13;97319.53;1224705;75;2918828;-71
2023/07/20 10:45:54;;;;;;;3.15;2.40;;;;;;;28.32;50.40;97318.03;1224491;75;2932048;-66
2023/07/20 10:48:28;;;;;;;4.10;2.55;;;;;;;27.92;50.37;97320.41;1223932;75;2920958;-67
2023/07/20 10:51:16;;;;;;;4.15;2.90;;;;;;;27.96;49.82;97320.69;1223715;75;2919648;-67
2023/07/20 10:53:48;;;;;;;3.20;2.10;;;;;;;28.53;51.04;97317.25;1224545;75;2930397;-68
2023/07/20 10:56:25;;;;;;;3.70;2.30;;;;;;;27.58;51.74;97318.88;1224098;75;2930794;-70
2023/07/20 10:59:02;;;;;;;4.00;3.00;;;;;;;27.99;52.13;97318.75;1224230;75;2925639;-66
2023/07/20 11:01:40;;;;;;;3.30;2.60;;;;;;;27.90;50.78;97308.31;1224172;75;2927300;-69
2023/07/20 11:04:13;;;;;;;5.40;2.45;;;;;;;27.52;48.32;97299.53;1223317;75;2916690;-67
2023/07/20 11:06:47;;;;;;;4.15;2.40;;;;;;;28.46;49.82;97293.59;1223948;75;2930630;-70
2023/07/20 11:09:20;;;;;;;3.70;2.20;;;;;;;28.87;50.06;97293.28;1224196;75;2921557;-66
2023/07/20 11:12:12;;;;;;;3.10;2.50;;;;;;;29.19;47.07;97283.25;1223487;75;2927444;-68
2023/07/20 11:14:45;;;;;;;3.05;2.30;;;;;;;28.61;47.08;97281.13;1223484;75;2918381;-68
2023/07/20 11:17:22;;;;;;;2.20;2.00;;;;;;;29.29;47.87;97292.31;1223968;75;2928769;-68
2023/07/20 11:20:00;;;;;;;2.75;2.10;;;;;;;28.81;47.05;97296.47;1223834;75;2955286;-69
2023/07/20 11:22:35;;;;;;;4.45;2.60;;;;;;;28.77;46.70;97298.31;1224771;75;2921465;-69
2023/07/20 11:25:08;;;;;;;3.30;2.45;;;;;;;27.93;47.00;97290.22;1224403;75;2920978;-69
2023/07/20 11:27:49;;;;;;;2.90;1.90;;;;;;;28.13;46.95;97305.59;1223828;75;2950925;-66
2023/07/20 11:30:21;;;;;;;6.50;2.00;;;;;;;27.89;45.98;97296.31;1219981;75;3117625;-69
2023/07/20 11:32:58;;;;;;;2.85;1.85;;;;;;;27.84;46.72;97305.84;1223305;75;2920602;-68
2023/07/20 11:35:31;;;;;;;3.45;2.20;;;;;;;27.49;48.06;97294.34;1224430;75;2928269;-67
2023/07/20 11:38:03;;;;;;;3.90;2.55;;;;;;;27.60;49.22;97305.69;1224626;75;2923760;-66
2023/07/20 11:40:36;;;;;;;2.45;2.20;;;;;;;27.46;50.27;97301.19;1224007;75;2934287;-67
2023/07/20 11:43:10;;;;;;;2.35;2.00;;;;;;;27.51;50.66;97306.47;1224576;75;2925475;-68
2023/07/20 11:45:43;;;;;;;4.05;2.50;;;;;;;27.65;51.80;97311.56;1223751;75;2929237;-67